Addison, Texas
Current Conditions -  °F | °C
As of 8:47 AM on Thursday 30 Oct 2014 (Local Time) from KADS Reporting Station
Clear Clear  
Wind Chill: 61°   Ceiling: Unl
Heat Index: 61°   Visibility: 13mi
Dew Point: 46°   Wind: 9mph
Humidity: 59%   Direction: 170°S
Pressure: 30.16"   Gusts: NA
Location:  32.95°N, 96.82°W
Report Text: KADS 301347Z 17008KT 13SM SKC 16/08 A3016
Loading
Personal Weather Stations






























Interactive Weather Map
Tropical Storm Tracking
New forecast layout! Learn more

10-Day Weather Forecast

Advertisements
Track Severe Weather on mobile